createdAt,value
2019-01-24T05:00:57.903Z,0.00
2019-01-24T05:01:57.770Z,0.00
2019-01-24T05:03:50.418Z,0.00
2019-01-24T05:04:50.299Z,0.00
2019-01-24T05:06:42.991Z,0.00
2019-01-24T05:07:42.862Z,0.00
2019-01-24T05:09:35.505Z,0.00
2019-01-24T05:10:35.389Z,0.00
2019-01-24T05:12:28.050Z,0.00
2019-01-24T05:13:27.917Z,0.00
2019-01-24T05:15:20.576Z,0.00
2019-01-24T05:16:20.452Z,0.00
2019-01-24T05:18:13.124Z,0.00
2019-01-24T05:19:12.984Z,0.00
2019-01-24T05:21:05.639Z,0.00
2019-01-24T05:22:05.518Z,0.00
2019-01-24T05:23:58.190Z,0.00
2019-01-24T05:24:58.090Z,0.00
2019-01-24T05:26:50.728Z,0.00
2019-01-24T05:27:50.588Z,0.00
2019-01-24T05:29:43.234Z,0.00
2019-01-24T05:30:43.113Z,0.00
2019-01-24T05:32:35.782Z,0.00
2019-01-24T05:33:35.646Z,0.00
2019-01-24T05:35:34.477Z,0.00
2019-01-24T05:36:28.178Z,0.00
2019-01-24T05:38:20.843Z,0.00
2019-01-24T05:39:20.720Z,0.00
2019-01-24T05:41:13.368Z,0.00
2019-01-24T05:42:13.341Z,0.00
2019-01-24T05:44:05.914Z,0.00
2019-01-24T05:45:05.779Z,0.00
2019-01-24T05:46:58.462Z,0.00
2019-01-24T05:47:58.315Z,0.00
2019-01-24T05:49:50.967Z,0.00
2019-01-24T05:50:50.854Z,0.00
2019-01-24T05:52:43.524Z,0.00
2019-01-24T05:53:43.385Z,0.00
2019-01-24T05:55:36.046Z,0.00
2019-01-24T05:56:35.931Z,0.00
2019-01-24T05:58:28.604Z,0.00
2019-01-24T05:59:28.459Z,0.00
2019-01-24T06:01:21.112Z,0.00
2019-01-24T06:02:20.993Z,0.00
2019-01-24T06:04:13.656Z,0.00
2019-01-24T06:05:13.529Z,0.00
2019-01-24T06:07:06.183Z,0.00
2019-01-24T06:08:06.068Z,0.00
2019-01-24T06:09:58.735Z,0.00
2019-01-24T06:10:58.609Z,0.00
2019-01-24T06:12:51.293Z,0.00
2019-01-24T06:13:51.155Z,0.00
2019-01-24T06:15:43.800Z,0.00
2019-01-24T06:16:43.683Z,0.00
2019-01-24T06:18:36.419Z,0.00
2019-01-24T06:19:36.319Z,0.00
2019-01-24T06:21:28.921Z,0.00
2019-01-24T06:22:28.812Z,0.00
2019-01-24T06:24:21.496Z,0.00
2019-01-24T06:25:21.371Z,0.00
2019-01-24T06:27:14.012Z,0.00
2019-01-24T06:28:13.897Z,0.00
2019-01-24T06:30:06.559Z,0.00
2019-01-24T06:31:06.429Z,0.00
2019-01-24T06:32:59.098Z,0.00
2019-01-24T06:33:58.965Z,0.00
2019-01-24T06:35:51.619Z,0.00
2019-01-24T06:36:51.495Z,0.00
2019-01-24T06:38:44.946Z,0.00
2019-01-24T06:39:44.028Z,0.00
2019-01-24T06:41:36.676Z,0.00
2019-01-24T06:42:36.561Z,0.00
2019-01-24T06:44:29.229Z,0.00
2019-01-24T06:45:29.095Z,0.00
2019-01-24T06:47:21.747Z,0.00
2019-01-24T06:48:21.622Z,0.00
2019-01-24T06:50:14.290Z,0.00
2019-01-24T06:51:14.157Z,0.00
2019-01-24T06:53:06.824Z,0.00
2019-01-24T06:54:06.693Z,0.00
2019-01-24T06:55:59.342Z,0.00
2019-01-24T06:56:59.232Z,0.00
2019-01-24T06:58:51.898Z,0.00
2019-01-24T06:59:51.763Z,0.00
2019-01-24T07:01:44.417Z,0.00
2019-01-24T07:02:44.295Z,0.00
2019-01-24T07:04:36.967Z,0.00
2019-01-24T07:05:36.830Z,0.00
2019-01-24T07:07:29.485Z,0.00
2019-01-24T07:08:29.366Z,0.00
2019-01-24T07:10:22.040Z,0.00
2019-01-24T07:11:21.900Z,0.00
2019-01-24T07:13:14.553Z,0.00
2019-01-24T07:14:14.436Z,0.00
2019-01-24T07:16:07.114Z,0.00
2019-01-24T07:17:06.970Z,0.00
2019-01-24T07:18:59.646Z,0.00
2019-01-24T07:19:59.506Z,0.00
2019-01-24T07:21:52.156Z,0.00
2019-01-24T07:22:52.040Z,0.00
2019-01-24T07:24:44.707Z,5.63
2019-01-24T07:25:44.574Z,5.63
2019-01-24T07:27:37.224Z,5.63
2019-01-24T07:28:37.101Z,5.63
2019-01-24T07:30:29.810Z,5.63
2019-01-24T07:31:29.644Z,5.63
2019-01-24T07:33:22.291Z,5.63
2019-01-24T07:34:22.177Z,5.63
2019-01-24T07:36:14.842Z,5.63
2019-01-24T07:37:14.708Z,5.63
2019-01-24T07:39:07.467Z,11.25
2019-01-24T07:40:07.264Z,11.25
2019-01-24T07:41:59.930Z,11.25
2019-01-24T07:42:59.813Z,11.25
2019-01-24T07:44:52.536Z,11.25
2019-01-24T07:45:52.382Z,16.88
2019-01-24T07:47:45.913Z,16.88
2019-01-24T07:48:45.788Z,16.88
2019-01-24T07:50:38.466Z,16.88
2019-01-24T07:51:38.332Z,16.88
2019-01-24T07:53:31.078Z,22.50
2019-01-24T07:54:30.913Z,22.50
2019-01-24T07:56:23.583Z,22.50
2019-01-24T07:57:23.417Z,22.50
2019-01-24T07:59:16.082Z,28.13
2019-01-24T08:00:15.965Z,28.13
2019-01-24T08:02:08.681Z,28.13
2019-01-24T08:03:08.565Z,28.13
2019-01-24T08:05:01.268Z,33.75
2019-01-24T08:06:01.134Z,33.75
2019-01-24T08:07:53.845Z,33.75
2019-01-24T08:08:53.659Z,33.75
2019-01-24T08:10:46.344Z,39.38
2019-01-24T08:11:46.223Z,39.38
2019-01-24T08:13:38.861Z,39.38
2019-01-24T08:14:38.731Z,39.38
2019-01-24T08:16:31.415Z,39.38
2019-01-24T08:17:31.267Z,39.38
2019-01-24T08:19:23.919Z,39.38
2019-01-24T08:20:23.805Z,45.00
2019-01-24T08:22:16.478Z,50.63
2019-01-24T08:23:16.340Z,50.63
2019-01-24T08:25:08.996Z,50.63
2019-01-24T08:26:08.877Z,50.63
2019-01-24T08:28:01.546Z,50.63
2019-01-24T08:29:01.415Z,50.63
2019-01-24T08:30:54.091Z,50.63
2019-01-24T08:31:53.946Z,50.63
2019-01-24T08:33:46.603Z,50.63
2019-01-24T08:34:46.487Z,50.63
2019-01-24T08:36:39.156Z,56.25
2019-01-24T08:37:39.015Z,56.25
2019-01-24T08:39:31.668Z,56.25
2019-01-24T08:40:31.555Z,61.88
2019-01-24T08:42:24.232Z,56.25
2019-01-24T08:43:24.088Z,61.88
2019-01-24T08:45:16.736Z,61.88
2019-01-24T08:46:16.623Z,61.88
2019-01-24T08:48:09.285Z,61.88
2019-01-24T08:49:09.153Z,61.88
2019-01-24T08:51:01.822Z,67.50
2019-01-24T08:52:01.687Z,67.50
2019-01-24T08:53:54.352Z,67.50
2019-01-24T08:54:54.225Z,67.50
2019-01-24T08:56:46.892Z,67.50
2019-01-24T08:57:46.760Z,73.13
2019-01-24T08:59:40.057Z,73.13
2019-01-24T09:00:39.291Z,73.13
2019-01-24T09:02:31.959Z,73.13
2019-01-24T09:03:31.827Z,73.13
2019-01-24T09:05:24.486Z,73.13
2019-01-24T09:06:24.384Z,73.13
2019-01-24T09:08:17.032Z,73.13
2019-01-24T09:09:16.900Z,73.13
2019-01-24T09:11:09.559Z,78.75
2019-01-24T09:12:09.436Z,78.75
2019-01-24T09:14:02.104Z,84.38
2019-01-24T09:15:01.967Z,84.38
2019-01-24T09:16:54.697Z,84.38
2019-01-24T09:17:54.532Z,84.38
2019-01-24T09:19:47.151Z,90.00
2019-01-24T09:20:47.037Z,90.00
2019-01-24T09:22:39.705Z,90.00
2019-01-24T09:23:39.567Z,95.63
2019-01-24T09:25:32.225Z,95.63
2019-01-24T09:26:32.106Z,101.25
2019-01-24T09:28:24.783Z,106.88
2019-01-24T09:29:24.637Z,106.88
2019-01-24T09:31:17.294Z,101.25
2019-01-24T09:32:17.177Z,101.25
2019-01-24T09:34:09.842Z,101.25
2019-01-24T09:35:09.712Z,101.25
2019-01-24T09:37:02.380Z,101.25
2019-01-24T09:38:02.244Z,106.88
2019-01-24T09:39:54.900Z,106.88
2019-01-24T09:40:54.777Z,106.88
2019-01-24T09:42:47.446Z,101.25
2019-01-24T09:43:47.315Z,101.25
2019-01-24T09:45:39.962Z,106.88
2019-01-24T09:46:39.863Z,106.88
2019-01-24T09:48:32.532Z,112.50
2019-01-24T09:49:32.403Z,112.50
2019-01-24T09:51:25.063Z,123.75
2019-01-24T09:52:24.947Z,129.38
2019-01-24T09:54:17.583Z,135.00
2019-01-24T09:55:17.521Z,140.63
2019-01-24T09:57:10.191Z,146.25
2019-01-24T09:58:10.240Z,146.25
2019-01-24T10:00:02.656Z,146.25
2019-01-24T10:01:02.523Z,151.88
2019-01-24T10:02:55.201Z,157.50
2019-01-24T10:03:55.068Z,157.50
2019-01-24T10:05:47.729Z,168.75
2019-01-24T10:06:47.607Z,174.38
2019-01-24T10:08:40.325Z,180.00
2019-01-24T10:09:40.153Z,185.63
2019-01-24T10:11:32.826Z,180.00
2019-01-24T10:12:32.736Z,180.00
2019-01-24T10:14:25.364Z,185.63
2019-01-24T10:15:25.235Z,185.63
2019-01-24T10:17:17.889Z,185.63
2019-01-24T10:18:21.615Z,180.00
2019-01-24T10:20:10.434Z,191.25
2019-01-24T10:21:10.309Z,191.25
2019-01-24T10:23:02.972Z,185.63
2019-01-24T10:24:02.848Z,185.63
2019-01-24T10:25:55.497Z,185.63
2019-01-24T10:26:55.385Z,191.25
2019-01-24T10:28:48.049Z,219.38
2019-01-24T10:29:47.935Z,219.38
2019-01-24T10:31:40.588Z,208.13
2019-01-24T10:32:40.461Z,208.13
2019-01-24T10:34:33.131Z,213.75
2019-01-24T10:35:33.003Z,213.75
2019-01-24T10:37:25.647Z,213.75
2019-01-24T10:38:25.531Z,208.13
2019-01-24T10:40:18.208Z,213.75
2019-01-24T10:41:18.069Z,213.75
2019-01-24T10:43:10.726Z,208.13
2019-01-24T10:44:10.605Z,202.50
2019-01-24T10:46:03.277Z,196.88
2019-01-24T10:47:03.146Z,202.50
2019-01-24T10:48:55.812Z,208.13
2019-01-24T10:49:55.685Z,213.75
2019-01-24T10:51:48.342Z,230.63
2019-01-24T10:52:48.230Z,236.25
2019-01-24T10:54:40.903Z,236.25
2019-01-24T10:55:40.772Z,236.25
2019-01-24T10:57:33.434Z,236.25
2019-01-24T10:58:33.313Z,236.25
2019-01-24T11:00:25.993Z,236.25
2019-01-24T11:01:25.856Z,236.25
2019-01-24T11:03:18.509Z,241.88
2019-01-24T11:04:18.393Z,241.88
2019-01-24T11:06:11.066Z,253.13
2019-01-24T11:07:10.936Z,264.38
2019-01-24T11:09:03.607Z,275.63
2019-01-24T11:10:03.473Z,275.63
2019-01-24T11:11:56.132Z,270.00
2019-01-24T11:12:56.012Z,264.38
2019-01-24T11:14:48.686Z,258.75
2019-01-24T11:15:48.545Z,258.75
2019-01-24T11:17:41.203Z,247.50
2019-01-24T11:18:41.082Z,247.50
2019-01-24T11:20:34.193Z,253.13
2019-01-24T11:21:34.353Z,258.75
2019-01-24T11:23:26.355Z,258.75
2019-01-24T11:24:26.244Z,258.75
2019-01-24T11:26:18.933Z,258.75
2019-01-24T11:27:18.878Z,247.50
2019-01-24T11:29:11.523Z,241.88
2019-01-24T11:30:11.375Z,236.25
2019-01-24T11:32:04.085Z,230.63
2019-01-24T11:33:03.957Z,225.00
2019-01-24T11:34:56.689Z,213.75
2019-01-24T11:35:56.496Z,202.50
2019-01-24T11:37:49.209Z,196.88
2019-01-24T11:38:49.094Z,196.88
2019-01-24T11:40:41.763Z,191.25
2019-01-24T11:41:41.615Z,191.25
2019-01-24T11:43:34.266Z,191.25
2019-01-24T11:44:34.180Z,196.88
2019-01-24T11:46:26.916Z,196.88
2019-01-24T11:47:26.738Z,196.88
2019-01-24T11:49:19.430Z,196.88
2019-01-24T11:50:19.344Z,196.88
2019-01-24T11:52:12.002Z,191.25
2019-01-24T11:53:11.913Z,191.25
2019-01-24T11:55:04.623Z,196.88
2019-01-24T11:56:04.428Z,202.50
2019-01-24T11:57:57.194Z,202.50
2019-01-24T11:58:57.013Z,202.50
2019-01-24T12:00:49.818Z,196.88
2019-01-24T12:01:49.538Z,196.88
2019-01-24T12:03:42.216Z,191.25
2019-01-24T12:04:42.062Z,196.88
2019-01-24T12:06:34.752Z,180.00
2019-01-24T12:07:34.620Z,180.00
2019-01-24T12:09:27.340Z,191.25
2019-01-24T12:10:27.185Z,191.25
2019-01-24T12:12:19.860Z,191.25
2019-01-24T12:13:19.725Z,196.88
2019-01-24T12:15:12.403Z,196.88
2019-01-24T12:16:12.268Z,202.50
2019-01-24T12:18:04.954Z,213.75
2019-01-24T12:19:04.810Z,225.00
2019-01-24T12:20:57.507Z,230.63
2019-01-24T12:21:57.340Z,225.00
2019-01-24T12:23:49.996Z,225.00
2019-01-24T12:24:49.882Z,225.00
2019-01-24T12:26:42.548Z,219.38
2019-01-24T12:27:42.420Z,213.75
2019-01-24T12:29:35.079Z,202.50
2019-01-24T12:30:34.959Z,196.88
2019-01-24T12:32:27.628Z,196.88
2019-01-24T12:33:27.503Z,196.88
2019-01-24T12:35:20.155Z,191.25
2019-01-24T12:36:20.042Z,191.25
2019-01-24T12:38:12.715Z,191.25
2019-01-24T12:39:12.582Z,185.63
2019-01-24T12:41:05.252Z,180.00
2019-01-24T12:42:05.111Z,180.00
2019-01-24T12:43:57.778Z,180.00
2019-01-24T12:44:57.659Z,180.00
2019-01-24T12:46:50.323Z,180.00
2019-01-24T12:47:50.190Z,174.38
2019-01-24T12:49:42.849Z,174.38
2019-01-24T12:50:42.734Z,168.75
2019-01-24T12:52:35.408Z,163.13
2019-01-24T12:53:35.286Z,163.13
2019-01-24T12:55:27.944Z,163.13
2019-01-24T12:56:27.828Z,163.13
2019-01-24T12:58:20.571Z,163.13
2019-01-24T12:59:20.362Z,163.13
2019-01-24T13:01:13.040Z,163.13
2019-01-24T13:02:12.904Z,168.75
2019-01-24T13:04:05.609Z,168.75
2019-01-24T13:05:05.489Z,168.75
2019-01-24T13:06:58.110Z,174.38
2019-01-24T13:07:57.977Z,180.00
2019-01-24T13:09:50.681Z,180.00
2019-01-24T13:10:50.547Z,185.63
2019-01-24T13:12:43.229Z,191.25
2019-01-24T13:13:43.129Z,196.88
2019-01-24T13:15:35.829Z,202.50
2019-01-24T13:16:35.727Z,196.88
2019-01-24T13:18:28.438Z,191.25
2019-01-24T13:19:28.312Z,191.25
2019-01-24T13:21:20.926Z,185.63
2019-01-24T13:22:20.795Z,185.63
2019-01-24T13:24:13.479Z,180.00
2019-01-24T13:25:13.324Z,180.00
2019-01-24T13:27:06.022Z,180.00
2019-01-24T13:28:05.873Z,185.63
2019-01-24T13:29:58.547Z,180.00
2019-01-24T13:30:58.415Z,180.00
2019-01-24T13:32:51.116Z,180.00
2019-01-24T13:33:51.012Z,180.00
2019-01-24T13:35:44.493Z,185.63
2019-01-24T13:36:44.394Z,185.63
2019-01-24T13:38:37.076Z,185.63
2019-01-24T13:39:36.933Z,180.00
2019-01-24T13:41:29.635Z,168.75
2019-01-24T13:42:29.510Z,168.75
2019-01-24T13:44:22.193Z,163.13
2019-01-24T13:45:22.003Z,163.13
2019-01-24T13:47:14.747Z,163.13
2019-01-24T13:48:14.631Z,163.13
2019-01-24T13:50:07.386Z,163.13
2019-01-24T13:51:07.214Z,157.50
2019-01-24T13:52:59.948Z,151.88
2019-01-24T13:53:59.797Z,151.88
2019-01-24T13:55:52.486Z,157.50
2019-01-24T13:56:52.347Z,157.50
2019-01-24T13:58:45.050Z,157.50
2019-01-24T13:59:44.885Z,151.88
2019-01-24T14:01:37.580Z,146.25
2019-01-24T14:02:37.434Z,140.63
2019-01-24T14:04:30.123Z,140.63
2019-01-24T14:05:29.970Z,135.00
2019-01-24T14:07:22.686Z,135.00
2019-01-24T14:08:22.508Z,135.00
2019-01-24T14:10:15.192Z,135.00
2019-01-24T14:11:18.269Z,135.00
2019-01-24T14:13:07.717Z,135.00
2019-01-24T14:14:07.598Z,135.00
2019-01-24T14:16:00.258Z,135.00
2019-01-24T14:17:00.143Z,129.38
2019-01-24T14:18:52.835Z,123.75
2019-01-24T14:19:52.683Z,123.75
2019-01-24T14:21:45.378Z,118.13
2019-01-24T14:22:45.236Z,118.13
2019-01-24T14:24:37.894Z,112.50
2019-01-24T14:25:37.796Z,112.50
2019-01-24T14:27:30.429Z,106.88
2019-01-24T14:28:30.286Z,106.88
2019-01-24T14:30:22.997Z,106.88
2019-01-24T14:31:22.854Z,101.25
2019-01-24T14:33:15.627Z,95.63
2019-01-24T14:34:15.454Z,95.63
2019-01-24T14:36:08.195Z,90.00
2019-01-24T14:37:07.991Z,90.00
2019-01-24T14:39:00.754Z,84.38
2019-01-24T14:40:00.595Z,84.38
2019-01-24T14:41:53.318Z,78.75
2019-01-24T14:42:53.120Z,78.75
2019-01-24T14:44:45.917Z,73.13
2019-01-24T14:45:45.708Z,73.13
2019-01-24T14:47:38.438Z,67.50
2019-01-24T14:48:38.280Z,67.50
2019-01-24T14:50:30.952Z,67.50
2019-01-24T14:51:30.811Z,67.50
2019-01-24T14:53:23.471Z,67.50
2019-01-24T14:54:23.349Z,67.50
2019-01-24T14:56:16.027Z,67.50
2019-01-24T14:57:15.892Z,67.50
2019-01-24T14:59:08.564Z,67.50
2019-01-24T15:00:08.431Z,67.50
2019-01-24T15:02:01.078Z,67.50
2019-01-24T15:03:00.965Z,61.88
2019-01-24T15:04:53.673Z,56.25
2019-01-24T15:05:53.511Z,56.25
2019-01-24T15:07:47.463Z,56.25
2019-01-24T15:08:46.037Z,56.25
2019-01-24T15:10:38.715Z,50.63
2019-01-24T15:11:38.580Z,50.63
2019-01-24T15:13:31.236Z,50.63
2019-01-24T15:14:31.126Z,50.63
2019-01-24T15:16:23.790Z,45.00
2019-01-24T15:17:23.654Z,45.00
2019-01-24T15:19:16.311Z,45.00
2019-01-24T15:20:16.192Z,45.00
2019-01-24T15:22:08.866Z,39.38
2019-01-24T15:23:08.730Z,39.38
2019-01-24T15:25:01.409Z,39.38
2019-01-24T15:26:01.271Z,39.38
2019-01-24T15:27:53.943Z,39.38
2019-01-24T15:28:53.827Z,33.75
2019-01-24T15:30:46.491Z,33.75
2019-01-24T15:31:46.357Z,28.13
2019-01-24T15:33:39.010Z,28.13
2019-01-24T15:34:38.885Z,28.13
2019-01-24T15:36:31.561Z,28.13
2019-01-24T15:37:31.430Z,28.13
2019-01-24T15:39:24.083Z,22.50
2019-01-24T15:40:23.967Z,22.50
2019-01-24T15:42:16.633Z,16.88
2019-01-24T15:43:16.507Z,16.88
2019-01-24T15:45:09.181Z,16.88
2019-01-24T15:46:09.048Z,16.88
2019-01-24T15:48:01.706Z,11.25
2019-01-24T15:49:01.595Z,11.25
2019-01-24T15:50:54.271Z,11.25
2019-01-24T15:51:54.133Z,11.25
2019-01-24T15:53:46.789Z,11.25
2019-01-24T15:54:46.672Z,5.63
2019-01-24T15:56:39.340Z,5.63
2019-01-24T15:57:39.212Z,5.63
2019-01-24T15:59:31.862Z,5.63
2019-01-24T16:00:31.746Z,5.63
2019-01-24T16:02:24.417Z,5.63
2019-01-24T16:03:24.290Z,0.00
2019-01-24T16:05:16.950Z,0.00
2019-01-24T16:06:16.839Z,0.00
2019-01-24T16:08:09.511Z,0.00
2019-01-24T16:09:09.372Z,0.00
2019-01-24T16:11:02.042Z,0.00
2019-01-24T16:12:01.919Z,0.00
2019-01-24T16:13:54.567Z,0.00
2019-01-24T16:14:54.565Z,0.00
2019-01-24T16:16:47.115Z,0.00
2019-01-24T16:17:46.978Z,0.00
2019-01-24T16:19:39.636Z,0.00
2019-01-24T16:20:39.551Z,0.00
2019-01-24T16:22:32.198Z,0.00
2019-01-24T16:23:32.067Z,0.00
2019-01-24T16:25:24.726Z,0.00
2019-01-24T16:26:24.591Z,0.00
2019-01-24T16:28:17.266Z,0.00
2019-01-24T16:29:17.127Z,0.00
2019-01-24T16:31:09.803Z,0.00
2019-01-24T16:32:09.668Z,0.00
2019-01-24T16:34:02.317Z,0.00
2019-01-24T16:35:02.209Z,0.00
2019-01-24T16:36:54.867Z,0.00
2019-01-24T16:37:54.742Z,0.00
2019-01-24T16:39:47.386Z,0.00
2019-01-24T16:40:47.270Z,0.00
2019-01-24T16:42:39.938Z,0.00
2019-01-24T16:43:39.802Z,0.00
2019-01-24T16:45:32.457Z,0.00
2019-01-24T16:46:32.456Z,0.00
2019-01-24T16:48:25.077Z,0.00
2019-01-24T16:49:24.886Z,0.00
2019-01-24T16:51:17.553Z,0.00
2019-01-24T16:52:17.436Z,0.00
2019-01-24T16:54:10.108Z,0.00
2019-01-24T16:55:09.969Z,0.00
2019-01-24T16:57:02.638Z,0.00
2019-01-24T16:58:02.505Z,0.00
2019-01-24T16:59:55.157Z,0.00
2019-01-24T17:00:55.038Z,0.00
2019-01-24T17:02:47.703Z,0.00
2019-01-24T17:03:47.565Z,0.00
2019-01-24T17:05:40.238Z,0.00
2019-01-24T17:06:40.101Z,0.00
2019-01-24T17:08:33.502Z,0.00
2019-01-24T17:09:32.640Z,0.00
2019-01-24T17:11:25.297Z,0.00
2019-01-24T17:12:25.178Z,0.00
2019-01-24T17:14:22.309Z,0.00
2019-01-24T17:15:17.713Z,0.00
2019-01-24T17:17:10.383Z,0.00
2019-01-24T17:18:10.245Z,0.00
2019-01-24T17:20:02.903Z,0.00
2019-01-24T17:21:02.781Z,0.00
2019-01-24T17:22:55.450Z,0.00
2019-01-24T17:23:55.311Z,0.00
2019-01-24T17:25:47.967Z,0.00
2019-01-24T17:26:47.850Z,0.00
2019-01-24T17:28:40.516Z,0.00
2019-01-24T17:29:40.386Z,0.00
2019-01-24T17:31:33.039Z,0.00
2019-01-24T17:32:32.942Z,0.00
2019-01-24T17:34:25.583Z,0.00
2019-01-24T17:35:25.456Z,0.00
2019-01-24T17:37:18.127Z,0.00
2019-01-24T17:38:23.704Z,0.00
2019-01-24T17:40:10.651Z,0.00
2019-01-24T17:41:10.551Z,0.00
2019-01-24T17:43:03.201Z,0.00
2019-01-24T17:44:03.073Z,0.00
2019-01-24T17:45:55.735Z,0.00
2019-01-24T17:46:55.617Z,0.00
2019-01-24T17:48:48.283Z,0.00
2019-01-24T17:49:48.146Z,0.00
2019-01-24T17:51:40.810Z,0.00
2019-01-24T17:52:40.691Z,0.00
2019-01-24T17:54:33.361Z,0.00
2019-01-24T17:55:34.153Z,0.00
2019-01-24T17:57:25.879Z,0.00
2019-01-24T17:58:25.762Z,0.00
2019-01-24T18:00:18.434Z,0.00
2019-01-24T18:01:18.361Z,0.00
2019-01-24T18:03:10.958Z,0.00
2019-01-24T18:04:10.834Z,0.00
2019-01-24T18:06:03.478Z,0.00
2019-01-24T18:07:03.362Z,0.00
2019-01-24T18:08:56.033Z,0.00
2019-01-24T18:09:55.901Z,0.00
2019-01-24T18:11:48.555Z,0.00
2019-01-24T18:12:48.438Z,0.00
2019-01-24T18:14:41.128Z,0.00
2019-01-24T18:15:40.993Z,0.00
2019-01-24T18:17:33.646Z,0.00
2019-01-24T18:18:33.531Z,0.00
2019-01-24T18:20:26.204Z,0.00
2019-01-24T18:21:26.069Z,0.00
2019-01-24T18:23:19.970Z,0.00
2019-01-24T18:24:18.599Z,0.00
2019-01-24T18:26:11.260Z,0.00
2019-01-24T18:27:11.139Z,0.00
2019-01-24T18:29:03.809Z,0.00
2019-01-24T18:30:03.677Z,0.00
2019-01-24T18:31:56.419Z,0.00
2019-01-24T18:32:56.309Z,0.00
2019-01-24T18:34:48.970Z,0.00
2019-01-24T18:35:48.840Z,0.00
2019-01-24T18:37:41.488Z,0.00
2019-01-24T18:38:41.373Z,0.00
2019-01-24T18:40:34.037Z,0.00
2019-01-24T18:41:33.900Z,0.00
2019-01-24T18:43:26.562Z,0.00
2019-01-24T18:44:26.439Z,0.00
2019-01-24T18:46:19.109Z,0.00
2019-01-24T18:47:18.972Z,0.00
2019-01-24T18:49:11.655Z,0.00
2019-01-24T18:50:11.515Z,0.00
2019-01-24T18:52:04.199Z,0.00
2019-01-24T18:53:04.096Z,0.00
2019-01-24T18:54:56.785Z,0.00
2019-01-24T18:55:56.629Z,0.00
2019-01-24T18:57:49.281Z,0.00
2019-01-24T18:58:49.162Z,0.00
2019-01-24T19:00:41.833Z,0.00
2019-01-24T19:01:41.706Z,0.00
2019-01-24T19:03:34.386Z,0.00
2019-01-24T19:04:34.259Z,0.00
2019-01-24T19:06:26.931Z,0.00
2019-01-24T19:07:26.801Z,0.00
2019-01-24T19:09:19.476Z,0.00
2019-01-24T19:10:19.338Z,0.00
2019-01-24T19:12:11.998Z,0.00
2019-01-24T19:13:11.879Z,0.00
2019-01-24T19:15:04.553Z,0.00
2019-01-24T19:16:04.426Z,0.00
2019-01-24T19:17:57.116Z,0.00
2019-01-24T19:18:56.988Z,0.00
2019-01-24T19:20:49.652Z,0.00
2019-01-24T19:21:49.523Z,0.00
2019-01-24T19:23:42.176Z,0.00
2019-01-24T19:24:42.059Z,0.00
2019-01-24T19:26:34.760Z,0.00
2019-01-24T19:27:34.635Z,0.00
2019-01-24T19:29:27.278Z,0.00
2019-01-24T19:30:27.154Z,0.00
2019-01-24T19:32:19.832Z,0.00
2019-01-24T19:33:19.702Z,0.00
2019-01-24T19:35:12.375Z,0.00
2019-01-24T19:36:12.252Z,0.00
2019-01-24T19:38:04.896Z,0.00
2019-01-24T19:39:04.778Z,0.00
2019-01-24T19:40:57.458Z,0.00
2019-01-24T19:41:57.328Z,0.00
2019-01-24T19:43:50.136Z,0.00
2019-01-24T19:44:49.871Z,0.00
2019-01-24T19:46:42.558Z,0.00
2019-01-24T19:47:42.449Z,0.00
2019-01-24T19:49:35.157Z,0.00
2019-01-24T19:50:34.973Z,0.00
2019-01-24T19:52:27.639Z,0.00
2019-01-24T19:53:27.580Z,0.00
2019-01-24T19:55:20.162Z,0.00
2019-01-24T19:56:20.075Z,0.00
2019-01-24T19:58:12.729Z,0.00
2019-01-24T19:59:12.594Z,0.00
2019-01-24T20:01:05.265Z,0.00
2019-01-24T20:02:05.132Z,0.00
2019-01-24T20:03:57.790Z,0.00
2019-01-24T20:04:57.670Z,0.00
2019-01-24T20:06:50.468Z,0.00
2019-01-24T20:07:50.403Z,0.00
2019-01-24T20:09:43.003Z,0.00
2019-01-24T20:10:42.876Z,0.00
2019-01-24T20:12:35.549Z,0.00
2019-01-24T20:13:35.423Z,0.00
2019-01-24T20:15:28.091Z,0.00
2019-01-24T20:16:28.739Z,0.00
2019-01-24T20:18:20.707Z,0.00
2019-01-24T20:19:20.574Z,0.00
2019-01-24T20:21:13.240Z,0.00
2019-01-24T20:22:13.109Z,0.00
2019-01-24T20:24:05.765Z,0.00
2019-01-24T20:25:05.639Z,0.00
2019-01-24T20:26:58.315Z,0.00
2019-01-24T20:27:58.175Z,0.00
2019-01-24T20:29:50.833Z,0.00
2019-01-24T20:30:50.717Z,0.00
2019-01-24T20:32:43.379Z,0.00
2019-01-24T20:33:43.257Z,0.00
2019-01-24T20:35:35.894Z,0.00
2019-01-24T20:36:35.773Z,0.00
2019-01-24T20:38:28.445Z,0.00
2019-01-24T20:39:28.307Z,0.00
2019-01-24T20:41:20.975Z,0.00
2019-01-24T20:42:20.850Z,0.00
2019-01-24T20:44:13.515Z,0.00
2019-01-24T20:45:13.391Z,0.00
2019-01-24T20:47:06.040Z,0.00
2019-01-24T20:48:05.939Z,0.00
2019-01-24T20:49:58.604Z,0.00
2019-01-24T20:50:58.457Z,0.00
2019-01-24T20:52:51.126Z,0.00
2019-01-24T20:53:50.987Z,0.00
2019-01-24T20:55:43.650Z,0.00
2019-01-24T20:56:43.529Z,0.00
2019-01-24T20:58:36.202Z,0.00
2019-01-24T20:59:36.092Z,0.00
2019-01-24T21:01:28.723Z,0.00
2019-01-24T21:02:28.605Z,0.00
2019-01-24T21:04:21.283Z,0.00
2019-01-24T21:05:21.135Z,0.00
2019-01-24T21:07:13.800Z,0.00
2019-01-24T21:08:13.684Z,0.00
2019-01-24T21:10:06.441Z,0.00
2019-01-24T21:11:06.316Z,0.00
2019-01-24T21:12:59.003Z,0.00
2019-01-24T21:13:58.871Z,0.00
2019-01-24T21:15:51.577Z,0.00
2019-01-24T21:16:51.419Z,0.00
2019-01-24T21:18:44.102Z,0.00
2019-01-24T21:19:43.973Z,0.00
2019-01-24T21:21:36.646Z,0.00
2019-01-24T21:22:36.525Z,0.00
2019-01-24T21:24:29.207Z,0.00
2019-01-24T21:25:29.062Z,0.00
2019-01-24T21:27:21.740Z,0.00
2019-01-24T21:28:21.614Z,0.00
2019-01-24T21:30:14.294Z,0.00
2019-01-24T21:31:14.153Z,0.00
2019-01-24T21:33:06.921Z,0.00
2019-01-24T21:34:06.688Z,0.00
2019-01-24T21:35:59.361Z,0.00
2019-01-24T21:36:59.221Z,0.00
2019-01-24T21:38:51.893Z,0.00
2019-01-24T21:39:52.064Z,0.00
2019-01-24T21:41:44.610Z,0.00
2019-01-24T21:42:44.329Z,0.00
2019-01-24T21:44:36.998Z,0.00
2019-01-24T21:45:36.856Z,0.00
2019-01-24T21:47:29.513Z,0.00
2019-01-24T21:48:29.393Z,0.00
2019-01-24T21:50:22.080Z,0.00
2019-01-24T21:51:21.936Z,0.00
2019-01-24T21:53:14.596Z,0.00
2019-01-24T21:54:14.484Z,0.00
2019-01-24T21:56:07.148Z,0.00
2019-01-24T21:57:07.009Z,0.00
2019-01-24T21:58:59.685Z,0.00
2019-01-24T21:59:59.548Z,0.00
2019-01-24T22:01:52.207Z,0.00
2019-01-24T22:02:52.086Z,0.00
2019-01-24T22:04:44.754Z,0.00
2019-01-24T22:05:44.631Z,0.00
2019-01-24T22:07:37.286Z,0.00
2019-01-24T22:08:37.158Z,0.00
2019-01-24T22:10:29.837Z,0.00
2019-01-24T22:11:29.703Z,0.00
2019-01-24T22:13:22.354Z,0.00
2019-01-24T22:14:22.234Z,0.00
2019-01-24T22:16:14.904Z,0.00
2019-01-24T22:17:14.774Z,0.00
2019-01-24T22:19:07.421Z,0.00
2019-01-24T22:20:07.311Z,0.00
2019-01-24T22:21:59.970Z,0.00
2019-01-24T22:22:59.836Z,0.00
2019-01-24T22:24:52.512Z,0.00
2019-01-24T22:25:52.370Z,0.00
2019-01-24T22:27:45.032Z,0.00
2019-01-24T22:28:44.915Z,0.00
2019-01-24T22:30:37.582Z,0.00
2019-01-24T22:31:37.451Z,0.00
2019-01-24T22:33:30.105Z,0.00
2019-01-24T22:34:31.321Z,0.00
2019-01-24T22:36:22.659Z,0.00
2019-01-24T22:37:22.517Z,0.00
2019-01-24T22:39:15.204Z,0.00
2019-01-24T22:40:15.052Z,0.00
2019-01-24T22:42:07.715Z,0.00
2019-01-24T22:43:07.586Z,0.00
2019-01-24T22:45:00.257Z,0.00
2019-01-24T22:46:00.124Z,0.00
2019-01-24T22:47:52.773Z,0.00
2019-01-24T22:48:52.654Z,0.00
2019-01-24T22:50:45.328Z,0.00
2019-01-24T22:51:45.204Z,0.00
2019-01-24T22:53:37.848Z,0.00
2019-01-24T22:54:37.727Z,0.00
2019-01-24T22:56:35.350Z,0.00
2019-01-24T22:57:30.264Z,0.00
2019-01-24T22:59:22.924Z,0.00
